sensor_id;sensor_type;location;lat;lon;timestamp;P1;durP1;ratioP1;P2;durP2;ratioP2
20324;SDS011;10320;49.482;11.256;2023-05-10T00:00:28;5.80;;;4.33;;
20324;SDS011;10320;49.482;11.256;2023-05-10T00:02:54;4.40;;;4.00;;
20324;SDS011;10320;49.482;11.256;2023-05-10T00:05:20;3.90;;;3.47;;
20324;SDS011;10320;49.482;11.256;2023-05-10T00:07:46;4.70;;;4.10;;
20324;SDS011;10320;49.482;11.256;2023-05-10T00:10:12;4.87;;;4.20;;
20324;SDS011;10320;49.482;11.256;2023-05-10T00:12:38;4.17;;;3.77;;
20324;SDS011;10320;49.482;11.256;2023-05-10T00:15:04;5.00;;;4.50;;
20324;SDS011;10320;49.482;11.256;2023-05-10T00:17:30;4.97;;;4.00;;
20324;SDS011;10320;49.482;11.256;2023-05-10T00:19:56;4.93;;;3.87;;
20324;SDS011;10320;49.482;11.256;2023-05-10T00:22:22;6.43;;;4.10;;
20324;SDS011;10320;49.482;11.256;2023-05-10T00:24:48;4.40;;;4.00;;
20324;SDS011;10320;49.482;11.256;2023-05-10T00:27:14;4.20;;;3.80;;
20324;SDS011;10320;49.482;11.256;2023-05-10T00:29:40;4.57;;;4.10;;
20324;SDS011;10320;49.482;11.256;2023-05-10T00:32:06;5.43;;;4.10;;
20324;SDS011;10320;49.482;11.256;2023-05-10T00:34:32;4.30;;;3.90;;
20324;SDS011;10320;49.482;11.256;2023-05-10T00:36:58;5.20;;;4.13;;
20324;SDS011;10320;49.482;11.256;2023-05-10T00:39:25;4.80;;;4.40;;
20324;SDS011;10320;49.482;11.256;2023-05-10T00:41:53;5.63;;;4.17;;
20324;SDS011;10320;49.482;11.256;2023-05-10T00:44:19;4.70;;;4.30;;
20324;SDS011;10320;49.482;11.256;2023-05-10T00:46:46;6.67;;;4.40;;
20324;SDS011;10320;49.482;11.256;2023-05-10T00:49:12;4.23;;;3.83;;
20324;SDS011;10320;49.482;11.256;2023-05-10T00:51:38;4.93;;;4.33;;
20324;SDS011;10320;49.482;11.256;2023-05-10T00:54:04;7.00;;;4.23;;
20324;SDS011;10320;49.482;11.256;2023-05-10T00:56:31;6.13;;;4.90;;
20324;SDS011;10320;49.482;11.256;2023-05-10T00:58:57;5.40;;;4.90;;
20324;SDS011;10320;49.482;11.256;2023-05-10T01:01:23;7.30;;;5.17;;
20324;SDS011;10320;49.482;11.256;2023-05-10T01:03:50;5.60;;;5.10;;
20324;SDS011;10320;49.482;11.256;2023-05-10T01:06:17;5.83;;;5.33;;
20324;SDS011;10320;49.482;11.256;2023-05-10T01:08:43;5.60;;;4.90;;
20324;SDS011;10320;49.482;11.256;2023-05-10T01:11:09;7.23;;;5.77;;
20324;SDS011;10320;49.482;11.256;2023-05-10T01:13:36;6.17;;;5.63;;
20324;SDS011;10320;49.482;11.256;2023-05-10T01:16:03;8.43;;;5.87;;
20324;SDS011;10320;49.482;11.256;2023-05-10T01:18:30;6.40;;;5.80;;
20324;SDS011;10320;49.482;11.256;2023-05-10T01:21:43;6.27;;;5.67;;
20324;SDS011;10320;49.482;11.256;2023-05-10T01:23:45;6.40;;;5.90;;
20324;SDS011;10320;49.482;11.256;2023-05-10T01:33:55;7.20;;;6.27;;
20324;SDS011;10320;49.482;11.256;2023-05-10T01:36:30;7.07;;;6.47;;
20324;SDS011;10320;49.482;11.256;2023-05-10T01:41:25;7.00;;;6.33;;
20324;SDS011;10320;49.482;11.256;2023-05-10T01:46:33;7.37;;;6.77;;
20324;SDS011;10320;49.482;11.256;2023-05-10T01:49:02;8.30;;;7.50;;
20324;SDS011;10320;49.482;11.256;2023-05-10T01:51:31;8.30;;;7.60;;
20324;SDS011;10320;49.482;11.256;2023-05-10T01:54:01;8.53;;;7.73;;
20324;SDS011;10320;49.482;11.256;2023-05-10T01:56:28;8.60;;;7.90;;
20324;SDS011;10320;49.482;11.256;2023-05-10T01:58:55;8.97;;;8.03;;
20324;SDS011;10320;49.482;11.256;2023-05-10T02:01:22;8.73;;;7.30;;
20324;SDS011;10320;49.482;11.256;2023-05-10T02:03:49;7.63;;;6.80;;
20324;SDS011;10320;49.482;11.256;2023-05-10T02:06:16;8.30;;;7.60;;
20324;SDS011;10320;49.482;11.256;2023-05-10T02:08:44;7.67;;;7.07;;
20324;SDS011;10320;49.482;11.256;2023-05-10T02:11:12;8.10;;;7.37;;
20324;SDS011;10320;49.482;11.256;2023-05-10T02:13:39;9.23;;;8.33;;
20324;SDS011;10320;49.482;11.256;2023-05-10T02:16:05;9.77;;;8.90;;
20324;SDS011;10320;49.482;11.256;2023-05-10T02:18:32;10.10;;;9.10;;
20324;SDS011;10320;49.482;11.256;2023-05-10T02:20:59;10.70;;;9.73;;
20324;SDS011;10320;49.482;11.256;2023-05-10T02:23:25;10.53;;;9.53;;
20324;SDS011;10320;49.482;11.256;2023-05-10T02:25:52;10.23;;;9.23;;
20324;SDS011;10320;49.482;11.256;2023-05-10T02:28:20;10.47;;;9.47;;
20324;SDS011;10320;49.482;11.256;2023-05-10T02:30:47;9.83;;;8.70;;
20324;SDS011;10320;49.482;11.256;2023-05-10T02:33:13;9.60;;;8.80;;
20324;SDS011;10320;49.482;11.256;2023-05-10T02:35:39;9.67;;;8.87;;
20324;SDS011;10320;49.482;11.256;2023-05-10T02:38:05;8.47;;;7.70;;
20324;SDS011;10320;49.482;11.256;2023-05-10T02:40:32;9.07;;;8.23;;
20324;SDS011;10320;49.482;11.256;2023-05-10T02:42:59;10.17;;;8.60;;
20324;SDS011;10320;49.482;11.256;2023-05-10T02:45:27;9.80;;;8.80;;
20324;SDS011;10320;49.482;11.256;2023-05-10T02:47:54;9.63;;;8.73;;
20324;SDS011;10320;49.482;11.256;2023-05-10T02:50:21;10.37;;;9.37;;
20324;SDS011;10320;49.482;11.256;2023-05-10T02:52:51;10.53;;;9.53;;
20324;SDS011;10320;49.482;11.256;2023-05-10T02:55:19;10.53;;;9.43;;
20324;SDS011;10320;49.482;11.256;2023-05-10T02:57:50;11.00;;;9.90;;
20324;SDS011;10320;49.482;11.256;2023-05-10T03:00:20;10.67;;;9.67;;
20324;SDS011;10320;49.482;11.256;2023-05-10T03:02:46;10.77;;;9.67;;
20324;SDS011;10320;49.482;11.256;2023-05-10T03:05:12;10.83;;;9.80;;
20324;SDS011;10320;49.482;11.256;2023-05-10T03:07:38;10.63;;;9.50;;
20324;SDS011;10320;49.482;11.256;2023-05-10T03:10:04;11.60;;;10.10;;
20324;SDS011;10320;49.482;11.256;2023-05-10T03:17:52;10.50;;;9.50;;
20324;SDS011;10320;49.482;11.256;2023-05-10T03:20:23;11.27;;;10.17;;
20324;SDS011;10320;49.482;11.256;2023-05-10T03:22:51;11.37;;;10.30;;
20324;SDS011;10320;49.482;11.256;2023-05-10T03:25:19;10.10;;;9.20;;
20324;SDS011;10320;49.482;11.256;2023-05-10T03:27:46;10.20;;;9.20;;
20324;SDS011;10320;49.482;11.256;2023-05-10T03:30:13;10.67;;;9.67;;
20324;SDS011;10320;49.482;11.256;2023-05-10T03:32:39;10.97;;;9.87;;
20324;SDS011;10320;49.482;11.256;2023-05-10T03:35:09;11.20;;;10.20;;
20324;SDS011;10320;49.482;11.256;2023-05-10T03:37:35;11.73;;;10.47;;
20324;SDS011;10320;49.482;11.256;2023-05-10T03:40:01;12.00;;;10.83;;
20324;SDS011;10320;49.482;11.256;2023-05-10T03:42:28;10.63;;;9.53;;
20324;SDS011;10320;49.482;11.256;2023-05-10T03:44:54;9.47;;;8.63;;
20324;SDS011;10320;49.482;11.256;2023-05-10T03:47:20;9.80;;;8.40;;
20324;SDS011;10320;49.482;11.256;2023-05-10T03:49:46;9.17;;;8.37;;
20324;SDS011;10320;49.482;11.256;2023-05-10T03:52:12;9.13;;;8.23;;
20324;SDS011;10320;49.482;11.256;2023-05-10T03:54:38;9.00;;;8.10;;
20324;SDS011;10320;49.482;11.256;2023-05-10T03:57:04;8.67;;;7.77;;
20324;SDS011;10320;49.482;11.256;2023-05-10T03:59:30;8.57;;;7.77;;
20324;SDS011;10320;49.482;11.256;2023-05-10T04:01:56;7.60;;;6.73;;
20324;SDS011;10320;49.482;11.256;2023-05-10T04:04:22;7.53;;;6.33;;
20324;SDS011;10320;49.482;11.256;2023-05-10T04:06:48;3.97;;;3.57;;
20324;SDS011;10320;49.482;11.256;2023-05-10T04:09:14;4.20;;;3.33;;
20324;SDS011;10320;49.482;11.256;2023-05-10T04:11:41;3.47;;;3.10;;
20324;SDS011;10320;49.482;11.256;2023-05-10T04:14:07;2.87;;;2.60;;
20324;SDS011;10320;49.482;11.256;2023-05-10T04:16:33;2.57;;;2.30;;
20324;SDS011;10320;49.482;11.256;2023-05-10T04:18:59;4.13;;;2.40;;
20324;SDS011;10320;49.482;11.256;2023-05-10T04:21:25;4.17;;;2.00;;
20324;SDS011;10320;49.482;11.256;2023-05-10T04:23:51;3.27;;;2.10;;
20324;SDS011;10320;49.482;11.256;2023-05-10T04:26:17;2.10;;;1.63;;
20324;SDS011;10320;49.482;11.256;2023-05-10T04:28:44;2.10;;;1.93;;
20324;SDS011;10320;49.482;11.256;2023-05-10T04:31:10;1.80;;;1.70;;
20324;SDS011;10320;49.482;11.256;2023-05-10T04:33:36;2.77;;;2.10;;
20324;SDS011;10320;49.482;11.256;2023-05-10T04:36:03;1.93;;;1.80;;
20324;SDS011;10320;49.482;11.256;2023-05-10T04:38:29;1.93;;;1.73;;
20324;SDS011;10320;49.482;11.256;2023-05-10T04:41:03;1.70;;;1.60;;
20324;SDS011;10320;49.482;11.256;2023-05-10T04:43:30;1.80;;;1.60;;
20324;SDS011;10320;49.482;11.256;2023-05-10T04:45:56;1.70;;;1.60;;
20324;SDS011;10320;49.482;11.256;2023-05-10T04:48:22;1.30;;;1.20;;
20324;SDS011;10320;49.482;11.256;2023-05-10T04:50:48;2.70;;;1.83;;
20324;SDS011;10320;49.482;11.256;2023-05-10T04:53:14;2.00;;;1.77;;
20324;SDS011;10320;49.482;11.256;2023-05-10T04:55:40;1.50;;;1.40;;
20324;SDS011;10320;49.482;11.256;2023-05-10T04:58:06;1.70;;;1.60;;
20324;SDS011;10320;49.482;11.256;2023-05-10T05:00:32;1.53;;;1.40;;
20324;SDS011;10320;49.482;11.256;2023-05-10T05:02:58;1.63;;;1.53;;
20324;SDS011;10320;49.482;11.256;2023-05-10T05:05:24;3.03;;;1.50;;
20324;SDS011;10320;49.482;11.256;2023-05-10T05:07:50;1.53;;;1.30;;
20324;SDS011;10320;49.482;11.256;2023-05-10T05:10:17;1.30;;;1.20;;
20324;SDS011;10320;49.482;11.256;2023-05-10T05:12:43;1.50;;;1.40;;
20324;SDS011;10320;49.482;11.256;2023-05-10T05:15:09;1.40;;;1.03;;
20324;SDS011;10320;49.482;11.256;2023-05-10T05:17:35;1.67;;;1.37;;
20324;SDS011;10320;49.482;11.256;2023-05-10T05:20:01;1.40;;;1.30;;
20324;SDS011;10320;49.482;11.256;2023-05-10T05:22:28;1.83;;;1.30;;
20324;SDS011;10320;49.482;11.256;2023-05-10T05:24:54;1.87;;;1.23;;
20324;SDS011;10320;49.482;11.256;2023-05-10T05:27:21;1.70;;;1.60;;
20324;SDS011;10320;49.482;11.256;2023-05-10T05:29:53;1.60;;;1.40;;
20324;SDS011;10320;49.482;11.256;2023-05-10T05:32:19;1.30;;;1.20;;
20324;SDS011;10320;49.482;11.256;2023-05-10T05:34:45;1.60;;;1.50;;
20324;SDS011;10320;49.482;11.256;2023-05-10T05:37:17;1.47;;;1.37;;
20324;SDS011;10320;49.482;11.256;2023-05-10T05:39:43;2.70;;;1.40;;
20324;SDS011;10320;49.482;11.256;2023-05-10T05:42:10;1.10;;;1.10;;
20324;SDS011;10320;49.482;11.256;2023-05-10T05:44:36;1.20;;;1.10;;
20324;SDS011;10320;49.482;11.256;2023-05-10T05:47:02;1.30;;;1.20;;
20324;SDS011;10320;49.482;11.256;2023-05-10T05:49:28;1.20;;;1.10;;
20324;SDS011;10320;49.482;11.256;2023-05-10T05:51:54;2.03;;;1.10;;
20324;SDS011;10320;49.482;11.256;2023-05-10T05:54:20;1.57;;;1.20;;
20324;SDS011;10320;49.482;11.256;2023-05-10T05:56:46;1.80;;;1.13;;
20324;SDS011;10320;49.482;11.256;2023-05-10T05:59:12;1.20;;;1.10;;
20324;SDS011;10320;49.482;11.256;2023-05-10T06:01:38;1.37;;;1.27;;
20324;SDS011;10320;49.482;11.256;2023-05-10T06:04:04;1.30;;;1.20;;
20324;SDS011;10320;49.482;11.256;2023-05-10T06:06:30;1.10;;;1.10;;
20324;SDS011;10320;49.482;11.256;2023-05-10T06:08:57;1.27;;;1.20;;
20324;SDS011;10320;49.482;11.256;2023-05-10T06:11:23;1.37;;;1.27;;
20324;SDS011;10320;49.482;11.256;2023-05-10T06:13:50;1.30;;;1.20;;
20324;SDS011;10320;49.482;11.256;2023-05-10T06:16:22;1.30;;;1.20;;
20324;SDS011;10320;49.482;11.256;2023-05-10T06:18:48;2.00;;;1.23;;
20324;SDS011;10320;49.482;11.256;2023-05-10T06:21:14;1.00;;;1.00;;
20324;SDS011;10320;49.482;11.256;2023-05-10T06:23:41;1.80;;;1.30;;
20324;SDS011;10320;49.482;11.256;2023-05-10T06:26:07;1.30;;;1.20;;
20324;SDS011;10320;49.482;11.256;2023-05-10T06:28:33;1.93;;;1.30;;
20324;SDS011;10320;49.482;11.256;2023-05-10T06:30:59;1.73;;;1.63;;
20324;SDS011;10320;49.482;11.256;2023-05-10T06:33:25;1.60;;;1.33;;
20324;SDS011;10320;49.482;11.256;2023-05-10T06:35:51;2.80;;;1.30;;
20324;SDS011;10320;49.482;11.256;2023-05-10T06:38:16;1.50;;;1.40;;
20324;SDS011;10320;49.482;11.256;2023-05-10T06:40:42;1.60;;;1.50;;
20324;SDS011;10320;49.482;11.256;2023-05-10T06:43:08;1.40;;;1.30;;
20324;SDS011;10320;49.482;11.256;2023-05-10T06:45:34;1.60;;;1.50;;
20324;SDS011;10320;49.482;11.256;2023-05-10T06:48:00;1.80;;;1.50;;
20324;SDS011;10320;49.482;11.256;2023-05-10T06:50:26;1.50;;;1.40;;
20324;SDS011;10320;49.482;11.256;2023-05-10T06:52:51;1.53;;;1.43;;
20324;SDS011;10320;49.482;11.256;2023-05-10T06:55:18;2.33;;;1.63;;
20324;SDS011;10320;49.482;11.256;2023-05-10T06:57:44;1.53;;;1.43;;
20324;SDS011;10320;49.482;11.256;2023-05-10T07:00:10;1.60;;;1.50;;
20324;SDS011;10320;49.482;11.256;2023-05-10T07:02:36;1.70;;;1.30;;
20324;SDS011;10320;49.482;11.256;2023-05-10T07:05:02;2.27;;;1.70;;
20324;SDS011;10320;49.482;11.256;2023-05-10T07:07:28;1.57;;;1.43;;
20324;SDS011;10320;49.482;11.256;2023-05-10T07:09:54;1.53;;;1.43;;
20324;SDS011;10320;49.482;11.256;2023-05-10T07:12:22;1.60;;;1.50;;
20324;SDS011;10320;49.482;11.256;2023-05-10T07:14:48;2.63;;;1.50;;
20324;SDS011;10320;49.482;11.256;2023-05-10T07:17:14;1.33;;;1.23;;
20324;SDS011;10320;49.482;11.256;2023-05-10T07:19:40;1.50;;;1.40;;
20324;SDS011;10320;49.482;11.256;2023-05-10T07:22:06;2.80;;;1.37;;
20324;SDS011;10320;49.482;11.256;2023-05-10T07:24:32;2.00;;;1.40;;
20324;SDS011;10320;49.482;11.256;2023-05-10T07:26:59;1.60;;;1.50;;
20324;SDS011;10320;49.482;11.256;2023-05-10T07:29:25;2.40;;;1.40;;
20324;SDS011;10320;49.482;11.256;2023-05-10T07:31:50;1.70;;;1.60;;
20324;SDS011;10320;49.482;11.256;2023-05-10T07:34:16;2.22;;;1.50;;
20324;SDS011;10320;49.482;11.256;2023-05-10T07:36:42;1.50;;;1.40;;
20324;SDS011;10320;49.482;11.256;2023-05-10T07:39:08;1.30;;;1.20;;
20324;SDS011;10320;49.482;11.256;2023-05-10T07:41:33;1.50;;;1.40;;
20324;SDS011;10320;49.482;11.256;2023-05-10T07:43:59;1.70;;;1.30;;
20324;SDS011;10320;49.482;11.256;2023-05-10T07:46:26;2.17;;;1.30;;
20324;SDS011;10320;49.482;11.256;2023-05-10T07:48:52;2.57;;;1.30;;
20324;SDS011;10320;49.482;11.256;2023-05-10T07:51:18;1.40;;;1.30;;
20324;SDS011;10320;49.482;11.256;2023-05-10T07:53:44;1.50;;;1.40;;
20324;SDS011;10320;49.482;11.256;2023-05-10T07:56:21;1.87;;;1.10;;
20324;SDS011;10320;49.482;11.256;2023-05-10T07:58:47;1.55;;;1.20;;
20324;SDS011;10320;49.482;11.256;2023-05-10T08:01:13;1.07;;;1.07;;
20324;SDS011;10320;49.482;11.256;2023-05-10T08:03:39;1.80;;;1.10;;
20324;SDS011;10320;49.482;11.256;2023-05-10T08:06:05;0.90;;;0.90;;
20324;SDS011;10320;49.482;11.256;2023-05-10T08:08:31;1.10;;;1.10;;
20324;SDS011;10320;49.482;11.256;2023-05-10T08:10:57;1.50;;;1.00;;
20324;SDS011;10320;49.482;11.256;2023-05-10T08:13:23;1.00;;;1.00;;
20324;SDS011;10320;49.482;11.256;2023-05-10T08:15:49;1.40;;;1.00;;
20324;SDS011;10320;49.482;11.256;2023-05-10T08:18:18;0.93;;;0.93;;
20324;SDS011;10320;49.482;11.256;2023-05-10T08:20:44;2.53;;;1.20;;
20324;SDS011;10320;49.482;11.256;2023-05-10T08:23:11;1.08;;;1.08;;
20324;SDS011;10320;49.482;11.256;2023-05-10T08:25:38;1.37;;;1.00;;
20324;SDS011;10320;49.482;11.256;2023-05-10T08:28:04;1.20;;;1.10;;
20324;SDS011;10320;49.482;11.256;2023-05-10T08:30:30;1.30;;;1.20;;
20324;SDS011;10320;49.482;11.256;2023-05-10T08:32:56;1.30;;;1.20;;
20324;SDS011;10320;49.482;11.256;2023-05-10T08:35:22;1.30;;;1.20;;
20324;SDS011;10320;49.482;11.256;2023-05-10T08:37:49;1.30;;;1.20;;
20324;SDS011;10320;49.482;11.256;2023-05-10T08:40:15;1.75;;;1.30;;
20324;SDS011;10320;49.482;11.256;2023-05-10T08:42:43;1.63;;;1.27;;
20324;SDS011;10320;49.482;11.256;2023-05-10T08:45:11;1.57;;;1.47;;
20324;SDS011;10320;49.482;11.256;2023-05-10T08:47:37;1.70;;;1.60;;
20324;SDS011;10320;49.482;11.256;2023-05-10T08:50:04;1.33;;;1.23;;
20324;SDS011;10320;49.482;11.256;2023-05-10T08:52:31;2.10;;;1.50;;
20324;SDS011;10320;49.482;11.256;2023-05-10T08:54:58;3.20;;;1.50;;
20324;SDS011;10320;49.482;11.256;2023-05-10T08:57:24;1.80;;;1.47;;
20324;SDS011;10320;49.482;11.256;2023-05-10T08:59:50;2.42;;;1.65;;
20324;SDS011;10320;49.482;11.256;2023-05-10T09:02:16;2.42;;;2.05;;
20324;SDS011;10320;49.482;11.256;2023-05-10T09:04:43;1.80;;;1.70;;
20324;SDS011;10320;49.482;11.256;2023-05-10T09:07:10;2.47;;;1.90;;
20324;SDS011;10320;49.482;11.256;2023-05-10T09:09:36;1.55;;;1.45;;
20324;SDS011;10320;49.482;11.256;2023-05-10T09:12:02;1.48;;;1.27;;
20324;SDS011;10320;49.482;11.256;2023-05-10T09:14:28;1.42;;;1.33;;
20324;SDS011;10320;49.482;11.256;2023-05-10T09:16:54;1.40;;;1.30;;
20324;SDS011;10320;49.482;11.256;2023-05-10T09:19:20;1.63;;;1.52;;
20324;SDS011;10320;49.482;11.256;2023-05-10T09:21:47;1.52;;;1.38;;
20324;SDS011;10320;49.482;11.256;2023-05-10T09:24:12;1.63;;;1.30;;
20324;SDS011;10320;49.482;11.256;2023-05-10T09:26:48;1.50;;;1.40;;
20324;SDS011;10320;49.482;11.256;2023-05-10T09:29:14;2.08;;;1.50;;
20324;SDS011;10320;49.482;11.256;2023-05-10T09:31:47;1.50;;;1.40;;
20324;SDS011;10320;49.482;11.256;2023-05-10T09:34:19;2.45;;;1.50;;
20324;SDS011;10320;49.482;11.256;2023-05-10T09:36:52;1.90;;;1.50;;
20324;SDS011;10320;49.482;11.256;2023-05-10T09:39:19;2.00;;;1.80;;
20324;SDS011;10320;49.482;11.256;2023-05-10T09:41:45;2.13;;;1.80;;
20324;SDS011;10320;49.482;11.256;2023-05-10T09:44:11;1.80;;;1.70;;
20324;SDS011;10320;49.482;11.256;2023-05-10T09:46:40;2.77;;;1.67;;
20324;SDS011;10320;49.482;11.256;2023-05-10T09:49:06;1.70;;;1.60;;
20324;SDS011;10320;49.482;11.256;2023-05-10T09:51:32;2.07;;;1.87;;
20324;SDS011;10320;49.482;11.256;2023-05-10T09:54:18;6.53;;;2.27;;
20324;SDS011;10320;49.482;11.256;2023-05-10T09:56:44;2.40;;;2.20;;
20324;SDS011;10320;49.482;11.256;2023-05-10T09:59:11;3.23;;;2.47;;
20324;SDS011;10320;49.482;11.256;2023-05-10T10:01:38;3.43;;;2.63;;
20324;SDS011;10320;49.482;11.256;2023-05-10T10:04:06;3.60;;;3.27;;
20324;SDS011;10320;49.482;11.256;2023-05-10T10:06:39;3.10;;;2.50;;
20324;SDS011;10320;49.482;11.256;2023-05-10T10:09:05;3.90;;;3.10;;
20324;SDS011;10320;49.482;11.256;2023-05-10T10:11:33;2.88;;;2.67;;
20324;SDS011;10320;49.482;11.256;2023-05-10T10:13:59;3.73;;;2.80;;
20324;SDS011;10320;49.482;11.256;2023-05-10T10:16:26;3.17;;;2.88;;
20324;SDS011;10320;49.482;11.256;2023-05-10T10:18:52;3.30;;;2.50;;
20324;SDS011;10320;49.482;11.256;2023-05-10T10:21:18;2.47;;;2.28;;
20324;SDS011;10320;49.482;11.256;2023-05-10T10:23:45;2.60;;;2.40;;
20324;SDS011;10320;49.482;11.256;2023-05-10T10:26:11;2.67;;;2.30;;
20324;SDS011;10320;49.482;11.256;2023-05-10T10:34:31;2.63;;;2.42;;
20324;SDS011;10320;49.482;11.256;2023-05-10T10:36:57;2.80;;;2.60;;
20324;SDS011;10320;49.482;11.256;2023-05-10T10:39:28;2.85;;;2.50;;
20324;SDS011;10320;49.482;11.256;2023-05-10T10:50:22;3.05;;;2.20;;
20324;SDS011;10320;49.482;11.256;2023-05-10T10:52:35;3.17;;;2.88;;
20324;SDS011;10320;49.482;11.256;2023-05-10T10:55:09;3.55;;;3.03;;
20324;SDS011;10320;49.482;11.256;2023-05-10T11:08:46;2.70;;;2.50;;
20324;SDS011;10320;49.482;11.256;2023-05-10T11:16:11;2.55;;;2.35;;
20324;SDS011;10320;49.482;11.256;2023-05-10T11:18:52;3.10;;;2.20;;
20324;SDS011;10320;49.482;11.256;2023-05-10T11:21:23;2.83;;;2.28;;
20324;SDS011;10320;49.482;11.256;2023-05-10T11:23:50;2.95;;;2.40;;
20324;SDS011;10320;49.482;11.256;2023-05-10T11:26:16;4.47;;;2.70;;
20324;SDS011;10320;49.482;11.256;2023-05-10T11:28:43;2.85;;;2.65;;
20324;SDS011;10320;49.482;11.256;2023-05-10T11:31:10;2.95;;;2.40;;
20324;SDS011;10320;49.482;11.256;2023-05-10T11:39:02;2.53;;;2.33;;
20324;SDS011;10320;49.482;11.256;2023-05-10T11:41:29;4.20;;;2.40;;
20324;SDS011;10320;49.482;11.256;2023-05-10T11:43:55;2.72;;;2.20;;
20324;SDS011;10320;49.482;11.256;2023-05-10T11:46:22;2.30;;;2.10;;
20324;SDS011;10320;49.482;11.256;2023-05-10T11:48:49;2.10;;;1.92;;
20324;SDS011;10320;49.482;11.256;2023-05-10T11:51:19;2.25;;;1.85;;
20324;SDS011;10320;49.482;11.256;2023-05-10T11:53:45;2.25;;;1.80;;
20324;SDS011;10320;49.482;11.256;2023-05-10T11:56:11;2.78;;;2.03;;
20324;SDS011;10320;49.482;11.256;2023-05-10T11:58:38;3.20;;;2.20;;
20324;SDS011;10320;49.482;11.256;2023-05-10T12:01:05;2.20;;;2.00;;
20324;SDS011;10320;49.482;11.256;2023-05-10T12:03:32;2.83;;;2.13;;
20324;SDS011;10320;49.482;11.256;2023-05-10T12:05:58;2.30;;;2.10;;
20324;SDS011;10320;49.482;11.256;2023-05-10T12:08:26;2.13;;;2.03;;
20324;SDS011;10320;49.482;11.256;2023-05-10T12:10:52;2.72;;;2.53;;
20324;SDS011;10320;49.482;11.256;2023-05-10T12:13:19;3.47;;;2.47;;
20324;SDS011;10320;49.482;11.256;2023-05-10T12:15:45;3.97;;;2.20;;
20324;SDS011;10320;49.482;11.256;2023-05-10T12:18:12;2.95;;;2.28;;
20324;SDS011;10320;49.482;11.256;2023-05-10T12:20:38;2.30;;;2.10;;
20324;SDS011;10320;49.482;11.256;2023-05-10T12:23:04;3.20;;;2.17;;
20324;SDS011;10320;49.482;11.256;2023-05-10T12:25:31;2.03;;;1.60;;
20324;SDS011;10320;49.482;11.256;2023-05-10T12:27:58;2.33;;;1.58;;
20324;SDS011;10320;49.482;11.256;2023-05-10T12:30:28;1.60;;;1.50;;
20324;SDS011;10320;49.482;11.256;2023-05-10T12:32:59;1.63;;;1.52;;
20324;SDS011;10320;49.482;11.256;2023-05-10T12:35:25;2.42;;;1.63;;
20324;SDS011;10320;49.482;11.256;2023-05-10T12:37:51;1.70;;;1.60;;
20324;SDS011;10320;49.482;11.256;2023-05-10T12:40:17;1.92;;;1.58;;
20324;SDS011;10320;49.482;11.256;2023-05-10T12:42:43;1.58;;;1.40;;
20324;SDS011;10320;49.482;11.256;2023-05-10T12:45:13;1.77;;;1.67;;
20324;SDS011;10320;49.482;11.256;2023-05-10T12:47:39;2.30;;;1.90;;
20324;SDS011;10320;49.482;11.256;2023-05-10T12:50:05;2.35;;;1.67;;
20324;SDS011;10320;49.482;11.256;2023-05-10T12:52:32;1.63;;;1.48;;
20324;SDS011;10320;49.482;11.256;2023-05-10T12:54:58;2.67;;;1.73;;
20324;SDS011;10320;49.482;11.256;2023-05-10T12:57:25;1.60;;;1.42;;
20324;SDS011;10320;49.482;11.256;2023-05-10T12:59:52;1.88;;;1.77;;
20324;SDS011;10320;49.482;11.256;2023-05-10T13:02:18;2.70;;;1.70;;
20324;SDS011;10320;49.482;11.256;2023-05-10T13:04:44;2.50;;;1.80;;
20324;SDS011;10320;49.482;11.256;2023-05-10T13:07:11;1.90;;;1.80;;
20324;SDS011;10320;49.482;11.256;2023-05-10T13:09:37;2.03;;;1.70;;
20324;SDS011;10320;49.482;11.256;2023-05-10T13:12:03;3.10;;;1.70;;
20324;SDS011;10320;49.482;11.256;2023-05-10T13:14:29;2.55;;;1.67;;
20324;SDS011;10320;49.482;11.256;2023-05-10T13:16:55;2.90;;;1.58;;
20324;SDS011;10320;49.482;11.256;2023-05-10T13:19:21;2.75;;;1.70;;
20324;SDS011;10320;49.482;11.256;2023-05-10T13:21:47;1.92;;;1.73;;
20324;SDS011;10320;49.482;11.256;2023-05-10T13:24:13;1.80;;;1.70;;
20324;SDS011;10320;49.482;11.256;2023-05-10T13:26:40;1.60;;;1.48;;
20324;SDS011;10320;49.482;11.256;2023-05-10T13:29:06;1.80;;;1.60;;
20324;SDS011;10320;49.482;11.256;2023-05-10T13:31:33;1.60;;;1.50;;
20324;SDS011;10320;49.482;11.256;2023-05-10T13:33:59;1.92;;;1.80;;
20324;SDS011;10320;49.482;11.256;2023-05-10T13:36:25;3.75;;;1.73;;
20324;SDS011;10320;49.482;11.256;2023-05-10T13:38:51;2.10;;;1.80;;
20324;SDS011;10320;49.482;11.256;2023-05-10T13:41:17;1.70;;;1.60;;
20324;SDS011;10320;49.482;11.256;2023-05-10T13:43:43;1.58;;;1.48;;
20324;SDS011;10320;49.482;11.256;2023-05-10T13:46:10;2.22;;;1.90;;
20324;SDS011;10320;49.482;11.256;2023-05-10T13:48:36;1.70;;;1.55;;
20324;SDS011;10320;49.482;11.256;2023-05-10T13:51:02;1.98;;;1.60;;
20324;SDS011;10320;49.482;11.256;2023-05-10T13:53:28;1.65;;;1.55;;
20324;SDS011;10320;49.482;11.256;2023-05-10T13:55:54;1.50;;;1.40;;
20324;SDS011;10320;49.482;11.256;2023-05-10T13:58:22;1.58;;;1.48;;
20324;SDS011;10320;49.482;11.256;2023-05-10T14:00:48;1.33;;;1.23;;
20324;SDS011;10320;49.482;11.256;2023-05-10T14:03:14;1.33;;;1.05;;
20324;SDS011;10320;49.482;11.256;2023-05-10T14:05:40;1.10;;;1.00;;
20324;SDS011;10320;49.482;11.256;2023-05-10T14:08:06;1.27;;;1.10;;
20324;SDS011;10320;49.482;11.256;2023-05-10T14:10:34;1.00;;;0.90;;
20324;SDS011;10320;49.482;11.256;2023-05-10T14:13:00;1.10;;;0.95;;
20324;SDS011;10320;49.482;11.256;2023-05-10T14:15:26;1.35;;;1.00;;
20324;SDS011;10320;49.482;11.256;2023-05-10T14:17:52;1.20;;;1.10;;
20324;SDS011;10320;49.482;11.256;2023-05-10T14:20:18;1.08;;;1.08;;
20324;SDS011;10320;49.482;11.256;2023-05-10T14:22:47;1.30;;;1.20;;
20324;SDS011;10320;49.482;11.256;2023-05-10T14:25:13;1.02;;;1.02;;
20324;SDS011;10320;49.482;11.256;2023-05-10T14:27:40;2.13;;;1.45;;
20324;SDS011;10320;49.482;11.256;2023-05-10T14:30:06;1.70;;;1.25;;
20324;SDS011;10320;49.482;11.256;2023-05-10T14:32:32;2.30;;;1.42;;
20324;SDS011;10320;49.482;11.256;2023-05-10T14:34:58;1.33;;;1.23;;
20324;SDS011;10320;49.482;11.256;2023-05-10T14:37:25;1.20;;;1.10;;
20324;SDS011;10320;49.482;11.256;2023-05-10T14:39:51;2.60;;;1.40;;
20324;SDS011;10320;49.482;11.256;2023-05-10T14:42:17;2.22;;;1.40;;
20324;SDS011;10320;49.482;11.256;2023-05-10T14:44:43;2.47;;;1.33;;
20324;SDS011;10320;49.482;11.256;2023-05-10T14:47:09;1.55;;;1.45;;
20324;SDS011;10320;49.482;11.256;2023-05-10T14:49:35;2.10;;;1.67;;
20324;SDS011;10320;49.482;11.256;2023-05-10T14:52:01;1.85;;;1.25;;
20324;SDS011;10320;49.482;11.256;2023-05-10T14:54:28;1.95;;;1.65;;
20324;SDS011;10320;49.482;11.256;2023-05-10T14:56:54;1.17;;;1.00;;
20324;SDS011;10320;49.482;11.256;2023-05-10T14:59:20;1.20;;;1.10;;
20324;SDS011;10320;49.482;11.256;2023-05-10T15:01:46;1.17;;;1.10;;
20324;SDS011;10320;49.482;11.256;2023-05-10T15:04:12;2.25;;;1.40;;
20324;SDS011;10320;49.482;11.256;2023-05-10T15:06:38;1.30;;;1.20;;
20324;SDS011;10320;49.482;11.256;2023-05-10T15:09:04;1.40;;;1.20;;
20324;SDS011;10320;49.482;11.256;2023-05-10T15:11:30;2.80;;;1.40;;
20324;SDS011;10320;49.482;11.256;2023-05-10T15:13:57;1.88;;;1.30;;
20324;SDS011;10320;49.482;11.256;2023-05-10T15:16:23;1.60;;;1.50;;
20324;SDS011;10320;49.482;11.256;2023-05-10T15:18:49;1.63;;;1.42;;
20324;SDS011;10320;49.482;11.256;2023-05-10T15:21:15;1.80;;;1.70;;
20324;SDS011;10320;49.482;11.256;2023-05-10T15:23:41;1.80;;;1.70;;